American Pillar — WDB9867 — position and weather

sailwx.info

Track history (hours):
 
Tides and Currents Weather Stations Pressure Air Temp Water Temp Dewpoint Dewpoint Depression Visibility Wind Speed Wind Dir Waves Ship Positions

American Pillar

Owner: American River Transportation Company, St Louis, MO. More information available from US FCC via Universal Licensing System and Coast Guard Vessel Documentation Center.

Last reported at 2017-Dec-13 19:07 UTC. Time now 2017-Dec-16 03:41 UTC.
Position N 32°40' W 091°08'.

Length 55 m; draft 3.5 m.

Type: Towing. MMSI: 366984210.

Date/timePositionNaut miles runAvg speedWind from/ knotsBaromVisibWave heightAir tempDewpointWater temp
2017-Dec-13 19:07N 32°40' W 091°08'0 4.2
2017-Dec-13 19:00N 32°40' W 091°08'2 4.2
2017-Dec-13 18:30N 32°38' W 091°09'2 4.5
2017-Dec-13 18:00N 32°36' W 091°08'2 4.8
2017-Dec-13 17:30N 32°34' W 091°06'2 4.4
2017-Dec-13 17:00N 32°32' W 091°06'2 4.8
2017-Dec-13 16:30N 32°30' W 091°07'3 5.1
2017-Dec-13 16:00N 32°27' W 091°05'3 5.1
2017-Dec-13 15:30N 32°26' W 091°03'2 4.6
2017-Dec-13 15:00N 32°25' W 091°00'2 4.0
2017-Dec-13 14:30N 32°23' W 090°60'2 4.5
2017-Dec-13 14:00N 32°21' W 090°59'3 5.3
2017-Dec-13 13:30N 32°21' W 090°56'2 4.3
2017-Dec-13 13:00N 32°20' W 090°54'2 4.4
2017-Dec-13 12:30N 32°18' W 090°55'3 5.1
2017-Dec-13 12:00N 32°16' W 090°57'2 4.2
2017-Dec-13 11:30N 32°15' W 090°59'1 1.1
2017-Dec-13 11:00N 32°14' W 090°59'2 3.4
2017-Dec-13 10:30N 32°12' W 090°59'2 4.7
2017-Dec-13 10:00N 32°10' W 091°00'2 4.6
2017-Dec-13 09:30N 32°08' W 091°00'2 4.0
2017-Dec-13 09:00N 32°07' W 091°03'2 3.1
2017-Dec-13 08:30N 32°08' W 091°05'2 3.6
2017-Dec-13 08:00N 32°08' W 091°07'5 1.4
2017-Dec-13 04:32N 32°03' W 091°03'0 5.0
2017-Dec-13 04:30N 32°03' W 091°03'3 5.6
2017-Dec-13 03:59N 32°01' W 091°05'2 4.8
2017-Dec-13 03:30N 31°59' W 091°07'3 4.7
2017-Dec-13 02:52N 31°59' W 091°11'  
2017-Dec-07 22:28N 31°57' W 091°11'5 5.7
2017-Dec-07 21:35N 31°59' W 091°06'1 6.2
2017-Dec-07 21:29N 31°60' W 091°05'3 6.6
2017-Dec-07 21:00N 32°03' W 091°04'3 5.9
2017-Dec-07 20:30N 32°05' W 091°05'3 5.1
2017-Dec-07 20:00N 32°07' W 091°07'2 4.1
2017-Dec-07 19:30N 32°08' W 091°04'3 5.7
2017-Dec-07 19:00N 32°08' W 091°01'3 6.6
2017-Dec-07 18:30N 32°11' W 090°60'3 6.6
2017-Dec-07 18:00N 32°14' W 090°59'3 6.4
2017-Dec-07 17:30N 32°17' W 090°57'2 4.8
2017-Dec-07 17:00N 32°18' W 090°55'2 4.1
2017-Dec-07 16:30N 32°20' W 090°54'3 5.1
2017-Dec-07 16:00N 32°21' W 090°57'3 5.6
2017-Dec-07 15:30N 32°22' W 091°00'3 6.7
2017-Dec-07 15:00N 32°25' W 091°00'4 7.9
2017-Dec-07 14:30N 32°27' W 091°05'4 7.5
2017-Dec-07 14:00N 32°30' W 091°07'4 8.0
2017-Dec-07 13:30N 32°34' W 091°07'4 8.2
2017-Dec-07 13:00N 32°38' W 091°09'  
Track history (hours):
 
Tides and Currents Weather Stations Pressure Air Temp Water Temp Dewpoint Dewpoint Depression Visibility Wind Speed Wind Dir Waves Ship Positions

American Pillar

Owner: American River Transportation Company, St Louis, MO. More information available from US FCC via Universal Licensing System and Coast Guard Vessel Documentation Center.

Last reported at 2017-Dec-13 19:07 UTC. Time now 2017-Dec-16 03:41 UTC.
Position N 32°40' W 091°08'.

Length 55 m; draft 3.5 m.

Type: Towing. MMSI: 366984210.

Date/timePositionNaut miles runAvg speedWind from/ knotsBaromVisibWave heightAir tempDewpointWater temp
2017-Dec-13 19:07N 32°40' W 091°08'0 4.2
2017-Dec-13 19:00N 32°40' W 091°08'2 4.2
2017-Dec-13 18:30N 32°38' W 091°09'2 4.5
2017-Dec-13 18:00N 32°36' W 091°08'2 4.8
2017-Dec-13 17:30N 32°34' W 091°06'2 4.4
2017-Dec-13 17:00N 32°32' W 091°06'2 4.8
2017-Dec-13 16:30N 32°30' W 091°07'3 5.1
2017-Dec-13 16:00N 32°27' W 091°05'3 5.1
2017-Dec-13 15:30N 32°26' W 091°03'2 4.6
2017-Dec-13 15:00N 32°25' W 091°00'2 4.0
2017-Dec-13 14:30N 32°23' W 090°60'2 4.5
2017-Dec-13 14:00N 32°21' W 090°59'3 5.3
2017-Dec-13 13:30N 32°21' W 090°56'2 4.3
2017-Dec-13 13:00N 32°20' W 090°54'2 4.4
2017-Dec-13 12:30N 32°18' W 090°55'3 5.1
2017-Dec-13 12:00N 32°16' W 090°57'2 4.2
2017-Dec-13 11:30N 32°15' W 090°59'1 1.1
2017-Dec-13 11:00N 32°14' W 090°59'2 3.4
2017-Dec-13 10:30N 32°12' W 090°59'2 4.7
2017-Dec-13 10:00N 32°10' W 091°00'2 4.6
2017-Dec-13 09:30N 32°08' W 091°00'2 4.0
2017-Dec-13 09:00N 32°07' W 091°03'2 3.1
2017-Dec-13 08:30N 32°08' W 091°05'2 3.6
2017-Dec-13 08:00N 32°08' W 091°07'5 1.4
2017-Dec-13 04:32N 32°03' W 091°03'0 5.0
2017-Dec-13 04:30N 32°03' W 091°03'3 5.6
2017-Dec-13 03:59N 32°01' W 091°05'2 4.8
2017-Dec-13 03:30N 31°59' W 091°07'3 4.7
2017-Dec-13 02:52N 31°59' W 091°11'  
2017-Dec-07 22:28N 31°57' W 091°11'5 5.7
2017-Dec-07 21:35N 31°59' W 091°06'1 6.2
2017-Dec-07 21:29N 31°60' W 091°05'3 6.6
2017-Dec-07 21:00N 32°03' W 091°04'3 5.9
2017-Dec-07 20:30N 32°05' W 091°05'3 5.1
2017-Dec-07 20:00N 32°07' W 091°07'2 4.1
2017-Dec-07 19:30N 32°08' W 091°04'3 5.7
2017-Dec-07 19:00N 32°08' W 091°01'3 6.6
2017-Dec-07 18:30N 32°11' W 090°60'3 6.6
2017-Dec-07 18:00N 32°14' W 090°59'3 6.4
2017-Dec-07 17:30N 32°17' W 090°57'2 4.8
2017-Dec-07 17:00N 32°18' W 090°55'2 4.1
2017-Dec-07 16:30N 32°20' W 090°54'3 5.1
2017-Dec-07 16:00N 32°21' W 090°57'3 5.6
2017-Dec-07 15:30N 32°22' W 091°00'3 6.7
2017-Dec-07 15:00N 32°25' W 091°00'4 7.9
2017-Dec-07 14:30N 32°27' W 091°05'4 7.5
2017-Dec-07 14:00N 32°30' W 091°07'4 8.0
2017-Dec-07 13:30N 32°34' W 091°07'4 8.2
2017-Dec-07 13:00N 32°38' W 091°09'  

Dump ship's entire track history